createdAt,value
2018-11-14T00:01:01.498Z,12.60
2018-11-14T00:03:32.113Z,12.60
2018-11-14T00:06:02.464Z,12.60
2018-11-14T00:08:32.639Z,12.50
2018-11-14T00:11:03.263Z,12.60
2018-11-14T00:13:34.023Z,12.60
2018-11-14T00:16:04.884Z,12.60
2018-11-14T00:18:35.099Z,12.60
2018-11-14T00:21:05.723Z,12.60
2018-11-14T00:23:35.954Z,12.60
2018-11-14T00:26:06.623Z,12.50
2018-11-14T00:28:36.972Z,12.50
2018-11-14T00:31:07.253Z,12.50
2018-11-14T00:33:37.389Z,12.40
2018-11-14T00:36:07.563Z,12.40
2018-11-14T00:38:37.698Z,12.30
2018-11-14T00:41:07.890Z,12.30
2018-11-14T00:43:38.323Z,12.30
2018-11-14T00:46:08.653Z,12.40
2018-11-14T00:48:38.974Z,12.40
2018-11-14T00:51:09.143Z,12.40
2018-11-14T00:53:39.513Z,12.40
2018-11-14T00:56:09.568Z,12.40
2018-11-14T00:58:39.692Z,12.40
2018-11-14T01:01:09.703Z,12.40
2018-11-14T01:03:39.923Z,12.30
2018-11-14T01:06:10.148Z,12.10
2018-11-14T01:08:40.138Z,12.10
2018-11-14T01:11:10.372Z,12.20
2018-11-14T01:13:40.373Z,12.20
2018-11-14T01:16:10.409Z,12.20
2018-11-14T01:18:40.583Z,12.10
2018-11-14T01:21:10.703Z,12.00
2018-11-14T01:23:40.733Z,11.90
2018-11-14T01:26:11.464Z,11.80
2018-11-14T01:28:41.842Z,11.70
2018-11-14T01:31:12.294Z,11.70
2018-11-14T01:33:42.848Z,11.70
2018-11-14T01:36:13.199Z,11.70
2018-11-14T01:38:43.809Z,11.70
2018-11-14T01:41:14.233Z,11.70
2018-11-14T01:43:44.718Z,11.70
2018-11-14T01:46:15.064Z,11.70
2018-11-14T01:48:45.428Z,11.40
2018-11-14T01:51:16.008Z,11.60
2018-11-14T01:53:46.228Z,11.60
2018-11-14T01:56:16.688Z,11.70
2018-11-14T01:58:46.613Z,11.70
2018-11-14T02:01:16.859Z,11.80
2018-11-14T02:03:47.223Z,11.80
2018-11-14T02:06:17.403Z,11.80
2018-11-14T02:08:47.583Z,11.90
2018-11-14T02:11:17.776Z,11.80
2018-11-14T02:13:48.053Z,11.80
2018-11-14T02:16:18.390Z,11.70
2018-11-14T02:18:48.563Z,11.60
2018-11-14T02:21:18.768Z,11.50
2018-11-14T02:23:49.137Z,11.50
2018-11-14T02:26:19.268Z,11.50
2018-11-14T02:28:51.542Z,11.50
2018-11-14T02:31:21.993Z,11.50
2018-11-14T02:33:52.553Z,11.40
2018-11-14T02:36:22.728Z,11.40
2018-11-14T02:38:53.158Z,11.40
2018-11-14T02:41:23.312Z,11.20
2018-11-14T02:43:53.435Z,11.20
2018-11-14T02:46:23.530Z,11.20
2018-11-14T02:48:53.614Z,11.20
2018-11-14T02:51:27.724Z,11.20
2018-11-14T02:53:57.998Z,11.00
2018-11-14T02:56:27.769Z,11.10
2018-11-14T02:58:57.704Z,11.10
2018-11-14T03:01:27.566Z,11.00
2018-11-14T03:03:57.464Z,11.10
2018-11-14T03:06:27.290Z,11.00
2018-11-14T03:08:57.173Z,11.00
2018-11-14T03:11:27.009Z,11.10
2018-11-14T03:13:56.783Z,11.10
2018-11-14T03:16:26.573Z,11.20
2018-11-14T03:18:56.373Z,11.20
2018-11-14T03:21:26.552Z,11.20
2018-11-14T03:23:56.828Z,11.10
2018-11-14T03:26:27.153Z,11.10
2018-11-14T03:28:57.188Z,11.20
2018-11-14T03:31:27.288Z,11.30
2018-11-14T03:33:57.328Z,11.40
2018-11-14T03:36:27.377Z,11.40
2018-11-14T03:38:57.542Z,11.50
2018-11-14T03:41:27.708Z,11.50
2018-11-14T03:43:57.693Z,11.50
2018-11-14T03:46:27.968Z,11.50
2018-11-14T03:48:58.052Z,11.50
2018-11-14T03:51:28.073Z,11.50
2018-11-14T03:53:58.023Z,11.50
2018-11-14T03:56:28.183Z,11.60
2018-11-14T03:58:58.188Z,11.60
2018-11-14T04:01:28.253Z,11.60
2018-11-14T04:03:58.283Z,11.60
2018-11-14T04:06:28.464Z,11.70
2018-11-14T04:08:58.763Z,11.80
2018-11-14T04:11:28.838Z,11.90
2018-11-14T04:13:59.882Z,12.00
2018-11-14T04:16:29.988Z,12.00
2018-11-14T04:19:00.403Z,11.90
2018-11-14T04:21:30.743Z,11.90
2018-11-14T04:24:00.873Z,11.90
2018-11-14T04:26:31.005Z,12.00
2018-11-14T04:29:01.353Z,12.00
2018-11-14T04:31:31.573Z,12.10
2018-11-14T04:34:02.057Z,12.10
2018-11-14T04:36:32.118Z,12.20
2018-11-14T04:39:02.263Z,12.20
2018-11-14T04:41:32.488Z,12.20
2018-11-14T04:44:02.668Z,12.30
2018-11-14T04:46:33.015Z,12.30
2018-11-14T04:49:03.199Z,12.30
2018-11-14T04:51:33.418Z,12.20
2018-11-14T04:54:03.728Z,12.30
2018-11-14T04:56:33.973Z,12.30
2018-11-14T04:59:04.297Z,12.30
2018-11-14T05:01:34.328Z,12.20
2018-11-14T05:04:04.632Z,12.20
2018-11-14T05:06:34.848Z,12.10
2018-11-14T05:09:05.318Z,12.20
2018-11-14T05:11:35.383Z,12.20
2018-11-14T05:14:05.743Z,12.30
2018-11-14T05:16:36.218Z,12.30
2018-11-14T05:19:06.653Z,12.40
2018-11-14T05:21:36.598Z,12.40
2018-11-14T05:24:06.589Z,12.40
2018-11-14T05:26:36.403Z,12.40
2018-11-14T05:29:07.253Z,12.50
2018-11-14T05:31:37.130Z,12.50
2018-11-14T05:34:07.303Z,12.50
2018-11-14T05:36:37.174Z,12.60
2018-11-14T05:39:10.188Z,12.60
2018-11-14T05:41:40.525Z,12.60
2018-11-14T05:44:10.558Z,12.60
2018-11-14T05:46:40.672Z,12.60
2018-11-14T05:49:10.683Z,12.60
2018-11-14T05:51:40.704Z,12.60
2018-11-14T05:54:10.723Z,12.60
2018-11-14T05:56:40.693Z,12.60
2018-11-14T05:59:10.808Z,12.60
2018-11-14T06:01:41.023Z,12.70
2018-11-14T06:04:11.839Z,12.70
2018-11-14T06:06:42.422Z,12.70
2018-11-14T06:09:14.164Z,12.70
2018-11-14T06:11:44.328Z,12.60
2018-11-14T06:14:14.663Z,12.70
2018-11-14T06:16:45.700Z,12.60
2018-11-14T06:19:16.103Z,12.60
2018-11-14T06:21:46.252Z,12.70
2018-11-14T06:24:16.380Z,12.70
2018-11-14T06:26:46.488Z,12.80
2018-11-14T06:29:16.636Z,12.70
2018-11-14T06:31:46.858Z,12.70
2018-11-14T06:34:16.878Z,12.80
2018-11-14T06:36:46.919Z,12.70
2018-11-14T06:39:17.073Z,12.70
2018-11-14T06:41:47.295Z,12.70
2018-11-14T06:44:17.378Z,12.70
2018-11-14T06:46:47.773Z,12.70
2018-11-14T06:49:17.968Z,12.70
2018-11-14T06:51:48.049Z,12.70
2018-11-14T06:54:18.328Z,12.70
2018-11-14T06:56:48.524Z,12.80
2018-11-14T06:59:18.678Z,12.80
2018-11-14T07:01:49.088Z,12.80
2018-11-14T07:04:19.173Z,12.80
2018-11-14T07:06:49.723Z,12.80
2018-11-14T07:09:19.949Z,12.90
2018-11-14T07:12:00.033Z,12.90
2018-11-14T07:14:31.318Z,12.90
2018-11-14T07:17:01.399Z,12.90
2018-11-14T07:19:31.797Z,13.00
2018-11-14T07:22:02.018Z,13.00
2018-11-14T07:24:32.198Z,13.00
2018-11-14T07:27:02.393Z,13.00
2018-11-14T07:29:32.554Z,13.10
2018-11-14T07:32:02.857Z,13.10
2018-11-14T07:34:32.939Z,13.10
2018-11-14T07:37:03.623Z,13.20
2018-11-14T07:39:33.758Z,13.20
2018-11-14T07:42:04.004Z,13.20
2018-11-14T07:44:34.093Z,13.20
2018-11-14T07:47:04.279Z,13.30
2018-11-14T07:49:34.458Z,13.30
2018-11-14T07:52:04.548Z,13.40
2018-11-14T07:54:35.122Z,13.50
2018-11-14T07:57:05.418Z,13.70
2018-11-14T07:59:35.558Z,13.80
2018-11-14T08:02:05.926Z,13.90
2018-11-14T08:04:35.934Z,14.10
2018-11-14T08:07:06.269Z,14.10
2018-11-14T08:09:36.819Z,14.10
2018-11-14T08:12:06.969Z,14.00
2018-11-14T08:14:37.193Z,14.10
2018-11-14T08:17:07.227Z,14.10
2018-11-14T08:19:37.143Z,14.00
2018-11-14T08:22:07.328Z,14.00
2018-11-14T08:24:37.444Z,14.00
2018-11-14T08:27:07.774Z,14.00
2018-11-14T08:29:38.304Z,14.00
2018-11-14T08:32:08.419Z,14.10
2018-11-14T08:34:38.233Z,14.20
2018-11-14T08:37:08.094Z,14.40
2018-11-14T08:39:37.909Z,14.30
2018-11-14T08:42:08.060Z,14.30
2018-11-14T08:44:38.254Z,14.20
2018-11-14T08:47:08.464Z,14.20
2018-11-14T08:49:38.568Z,14.20
2018-11-14T08:52:08.570Z,14.10
2018-11-14T08:54:38.638Z,14.10
2018-11-14T08:57:08.714Z,14.10
2018-11-14T08:59:38.909Z,14.10
2018-11-14T09:02:08.984Z,14.10
2018-11-14T09:04:39.439Z,14.10
2018-11-14T09:07:09.664Z,14.10
2018-11-14T09:09:40.058Z,14.00
2018-11-14T09:12:10.650Z,14.00
2018-11-14T09:14:40.788Z,14.00
2018-11-14T09:17:10.954Z,14.10
2018-11-14T09:19:41.088Z,14.10
2018-11-14T09:22:11.269Z,14.10
2018-11-14T09:24:41.372Z,14.10
2018-11-14T09:27:11.684Z,14.10
2018-11-14T09:29:42.004Z,14.00
2018-11-14T09:32:13.879Z,14.00
2018-11-14T09:34:43.909Z,14.00
2018-11-14T09:37:13.876Z,14.00
2018-11-14T09:39:43.793Z,14.00
2018-11-14T09:42:13.768Z,13.90
2018-11-14T09:44:43.799Z,14.00
2018-11-14T09:47:14.134Z,14.00
2018-11-14T09:49:44.034Z,14.00
2018-11-14T09:52:14.189Z,14.00
2018-11-14T09:54:43.953Z,14.00
2018-11-14T09:57:14.088Z,14.10
2018-11-14T09:59:44.008Z,14.10
2018-11-14T10:02:13.998Z,14.20
2018-11-14T10:04:44.144Z,14.30
2018-11-14T10:07:14.873Z,14.30
2018-11-14T10:09:44.866Z,14.40
2018-11-14T10:12:14.908Z,14.40
2018-11-14T10:14:45.229Z,14.40
2018-11-14T10:17:15.208Z,14.40
2018-11-14T10:19:45.308Z,14.50
2018-11-14T10:22:15.610Z,14.50
2018-11-14T10:24:45.888Z,14.50
2018-11-14T10:27:16.178Z,14.50
2018-11-14T10:29:46.238Z,14.50
2018-11-14T10:32:16.508Z,14.50
2018-11-14T10:34:46.528Z,14.40
2018-11-14T10:37:16.775Z,14.50
2018-11-14T10:39:46.929Z,14.60
2018-11-14T10:42:17.193Z,14.70
2018-11-14T10:44:47.094Z,14.80
2018-11-14T10:47:17.047Z,14.80
2018-11-14T10:49:46.998Z,14.70
2018-11-14T10:52:17.028Z,14.70
2018-11-14T10:54:48.313Z,14.80
2018-11-14T10:57:18.718Z,14.90
2018-11-14T10:59:48.993Z,15.00
2018-11-14T11:02:24.637Z,15.10
2018-11-14T11:06:02.010Z,15.10
2018-11-14T11:08:37.061Z,14.90
2018-11-14T11:11:12.258Z,14.70
2018-11-14T11:14:14.148Z,14.70
2018-11-14T11:16:49.715Z,14.50
2018-11-14T11:19:22.338Z,14.60
2018-11-14T11:21:52.588Z,14.80
2018-11-14T11:24:23.528Z,14.90
2018-11-14T11:26:53.709Z,15.00
2018-11-14T11:29:23.858Z,14.90
2018-11-14T11:31:54.809Z,14.90
2018-11-14T11:34:25.107Z,15.00
2018-11-14T11:36:55.338Z,15.00
2018-11-14T11:39:25.647Z,15.00
2018-11-14T11:41:55.702Z,14.90
2018-11-14T11:44:25.981Z,14.90
2018-11-14T11:46:56.168Z,14.80
2018-11-14T11:49:26.482Z,14.80
2018-11-14T11:51:56.603Z,14.70
2018-11-14T11:54:26.812Z,14.70
2018-11-14T11:56:57.293Z,14.70
2018-11-14T11:59:27.555Z,14.60
2018-11-14T12:01:57.900Z,14.50
2018-11-14T12:04:27.968Z,14.50
2018-11-14T12:06:57.808Z,14.60
2018-11-14T12:09:27.557Z,14.60
2018-11-14T12:11:57.343Z,14.60
2018-11-14T12:14:27.358Z,14.50
2018-11-14T12:16:57.233Z,14.50
2018-11-14T12:19:27.041Z,14.60
2018-11-14T12:21:56.810Z,14.60
2018-11-14T12:24:26.857Z,14.70
2018-11-14T12:26:56.858Z,14.70
2018-11-14T12:29:26.899Z,14.80
2018-11-14T12:31:56.971Z,14.70
2018-11-14T12:34:27.549Z,14.80
2018-11-14T12:36:57.907Z,14.80
2018-11-14T12:39:28.094Z,14.80
2018-11-14T12:41:57.859Z,14.70
2018-11-14T12:44:27.723Z,14.50
2018-11-14T12:46:57.588Z,14.60
2018-11-14T12:49:27.733Z,14.60
2018-11-14T12:51:57.723Z,14.60
2018-11-14T12:54:27.828Z,14.60
2018-11-14T12:56:57.853Z,14.60
2018-11-14T12:59:27.963Z,14.60
2018-11-14T13:01:58.242Z,14.70
2018-11-14T13:04:28.437Z,14.70
2018-11-14T13:06:58.348Z,14.70
2018-11-14T13:09:28.440Z,14.70
2018-11-14T13:11:58.413Z,14.70
2018-11-14T13:14:28.494Z,14.70
2018-11-14T13:16:58.493Z,14.60
2018-11-14T13:19:29.093Z,14.50
2018-11-14T13:21:59.474Z,14.40
2018-11-14T13:24:29.463Z,14.40
2018-11-14T13:26:59.932Z,14.40
2018-11-14T13:29:30.278Z,14.30
2018-11-14T13:32:00.353Z,14.40
2018-11-14T13:34:30.495Z,14.30
2018-11-14T13:37:00.768Z,14.30
2018-11-14T13:39:30.823Z,14.40
2018-11-14T13:42:00.918Z,14.40
2018-11-14T13:44:31.208Z,14.40
2018-11-14T13:47:01.500Z,14.40
2018-11-14T13:49:31.521Z,14.40
2018-11-14T13:52:01.718Z,14.40
2018-11-14T13:54:32.003Z,14.40
2018-11-14T13:57:02.079Z,14.30
2018-11-14T13:59:32.229Z,14.30
2018-11-14T14:02:02.323Z,14.30
2018-11-14T14:04:32.653Z,14.30
2018-11-14T14:07:02.953Z,14.30
2018-11-14T14:09:33.101Z,14.30
2018-11-14T14:12:03.114Z,14.40
2018-11-14T14:14:33.353Z,14.40
2018-11-14T14:17:03.604Z,14.40
2018-11-14T14:19:33.853Z,14.40
2018-11-14T14:22:03.912Z,14.40
2018-11-14T14:24:34.083Z,14.30
2018-11-14T14:27:04.228Z,14.20
2018-11-14T14:29:34.414Z,14.10
2018-11-14T14:32:04.893Z,14.20
2018-11-14T14:34:35.108Z,14.30
2018-11-14T14:37:05.188Z,14.20
2018-11-14T14:39:35.518Z,14.10
2018-11-14T14:42:05.668Z,14.00
2018-11-14T14:44:35.588Z,13.90
2018-11-14T14:47:05.855Z,13.90
2018-11-14T14:49:35.883Z,13.80
2018-11-14T14:52:06.292Z,13.90
2018-11-14T14:54:36.453Z,13.90
2018-11-14T14:57:06.518Z,13.80
2018-11-14T14:59:36.568Z,13.80
2018-11-14T15:02:07.228Z,13.70
2018-11-14T15:04:37.273Z,13.80
2018-11-14T15:07:07.368Z,13.90
2018-11-14T15:09:37.342Z,13.90
2018-11-14T15:12:07.813Z,14.00
2018-11-14T15:14:37.992Z,13.90
2018-11-14T15:17:08.278Z,13.90
2018-11-14T15:19:38.388Z,13.70
2018-11-14T15:22:08.348Z,13.70
2018-11-14T15:24:39.188Z,13.70
2018-11-14T15:27:09.362Z,13.70
2018-11-14T15:29:39.664Z,13.70
2018-11-14T15:32:09.998Z,13.60
2018-11-14T15:34:40.198Z,13.60
2018-11-14T15:37:10.430Z,13.60
2018-11-14T15:39:40.348Z,13.60
2018-11-14T15:42:10.549Z,13.60
2018-11-14T15:44:40.733Z,13.70
2018-11-14T15:47:10.938Z,13.70
2018-11-14T15:49:41.153Z,13.70
2018-11-14T15:52:11.219Z,13.70
2018-11-14T15:54:42.783Z,13.60
2018-11-14T15:57:12.878Z,13.60
2018-11-14T15:59:43.084Z,13.60
2018-11-14T16:02:13.313Z,13.60
2018-11-14T16:04:43.573Z,13.70
2018-11-14T16:07:13.823Z,13.70
2018-11-14T16:09:44.089Z,13.70
2018-11-14T16:12:14.316Z,13.60
2018-11-14T16:14:44.568Z,13.50
2018-11-14T16:17:14.537Z,13.50
2018-11-14T16:19:44.748Z,13.50
2018-11-14T16:22:14.882Z,13.50
2018-11-14T16:24:45.123Z,13.50
2018-11-14T16:27:15.393Z,13.50
2018-11-14T16:29:45.656Z,13.50
2018-11-14T16:32:15.919Z,13.50
2018-11-14T16:34:45.888Z,13.50
2018-11-14T16:37:15.938Z,13.60
2018-11-14T16:39:46.538Z,13.60
2018-11-14T16:42:16.798Z,13.60
2018-11-14T16:44:47.039Z,13.60
2018-11-14T16:47:17.103Z,13.60
2018-11-14T16:49:47.838Z,13.60
2018-11-14T16:52:18.163Z,13.70
2018-11-14T16:54:48.178Z,13.60
2018-11-14T16:57:18.348Z,13.70
2018-11-14T16:59:48.451Z,13.70
2018-11-14T17:02:18.959Z,13.70
2018-11-14T17:04:49.433Z,13.60
2018-11-14T17:07:19.909Z,13.60
2018-11-14T17:09:50.178Z,13.70
2018-11-14T17:12:20.828Z,13.70
2018-11-14T17:14:51.037Z,13.70
2018-11-14T17:17:21.648Z,13.70
2018-11-14T17:19:52.176Z,13.70
2018-11-14T17:22:22.710Z,13.60
2018-11-14T17:24:52.968Z,13.60
2018-11-14T17:27:23.634Z,13.60
2018-11-14T17:29:54.168Z,13.50
2018-11-14T17:32:24.214Z,13.50
2018-11-14T17:34:54.692Z,13.60
2018-11-14T17:37:24.994Z,13.50
2018-11-14T17:39:55.178Z,13.50
2018-11-14T17:42:25.905Z,13.60
2018-11-14T17:44:56.083Z,13.50
2018-11-14T17:47:26.128Z,13.50
2018-11-14T17:49:56.668Z,13.50
2018-11-14T17:52:26.974Z,13.50
2018-11-14T17:54:57.401Z,13.50
2018-11-14T17:57:27.385Z,13.50
2018-11-14T17:59:57.583Z,13.50
2018-11-14T18:02:27.773Z,13.50
2018-11-14T18:04:58.138Z,13.50
2018-11-14T18:07:28.473Z,13.50
2018-11-14T18:09:58.486Z,13.50
2018-11-14T18:12:28.643Z,13.50
2018-11-14T18:14:59.048Z,13.50
2018-11-14T18:17:29.377Z,13.50
2018-11-14T18:19:59.518Z,13.50
2018-11-14T18:22:31.229Z,13.50
2018-11-14T18:25:02.009Z,13.50
2018-11-14T18:27:32.576Z,13.50
2018-11-14T18:30:02.938Z,13.40
2018-11-14T18:32:34.240Z,13.40
2018-11-14T18:35:05.298Z,13.30
2018-11-14T18:37:35.500Z,13.30
2018-11-14T18:40:06.326Z,13.40
2018-11-14T18:42:37.208Z,13.30
2018-11-14T18:45:12.159Z,13.40
2018-11-14T18:47:42.524Z,13.30
2018-11-14T18:50:13.884Z,13.40
2018-11-14T18:52:45.894Z,13.40
2018-11-14T18:55:18.698Z,13.50
2018-11-14T18:57:50.098Z,13.50
2018-11-14T19:00:24.333Z,13.50
2018-11-14T19:02:54.766Z,13.50
2018-11-14T19:05:24.928Z,13.50
2018-11-14T19:07:55.183Z,13.50
2018-11-14T19:10:28.539Z,13.40
2018-11-14T19:12:58.949Z,13.40
2018-11-14T19:15:31.454Z,13.40
2018-11-14T19:18:01.863Z,13.40
2018-11-14T19:20:33.013Z,13.40
2018-11-14T19:23:04.003Z,13.40
2018-11-14T19:25:35.790Z,13.30
2018-11-14T19:28:06.529Z,13.30
2018-11-14T19:30:37.827Z,13.20
2018-11-14T19:33:08.354Z,13.20
2018-11-14T19:35:38.727Z,13.20
2018-11-14T19:38:09.144Z,13.20
2018-11-14T19:40:39.282Z,13.20
2018-11-14T19:43:10.899Z,13.10
2018-11-14T19:45:42.344Z,13.10
2018-11-14T19:48:12.813Z,13.10
2018-11-14T19:50:43.498Z,13.00
2018-11-14T19:53:14.218Z,13.10
2018-11-14T19:55:45.063Z,13.00
2018-11-14T19:58:15.774Z,12.80
2018-11-14T20:00:46.364Z,12.70
2018-11-14T20:03:16.923Z,12.60
2018-11-14T20:05:47.744Z,12.50
2018-11-14T20:08:18.679Z,12.60
2018-11-14T20:10:48.971Z,12.50
2018-11-14T20:13:19.529Z,12.50
2018-11-14T20:15:50.358Z,12.40
2018-11-14T20:18:20.919Z,12.40
2018-11-14T20:20:51.634Z,12.30
2018-11-14T20:23:22.395Z,12.30
2018-11-14T20:25:53.725Z,12.20
2018-11-14T20:28:25.299Z,12.20
2018-11-14T20:30:56.534Z,12.10
2018-11-14T20:33:38.699Z,12.20
2018-11-14T20:36:09.778Z,12.10
2018-11-14T20:38:43.534Z,12.10
2018-11-14T20:41:15.564Z,12.00
2018-11-14T20:43:47.714Z,12.00
2018-11-14T20:46:22.709Z,11.90
2018-11-14T20:48:54.566Z,11.90
2018-11-14T20:51:25.368Z,11.90
2018-11-14T20:53:55.945Z,11.90
2018-11-14T20:56:27.437Z,11.90
2018-11-14T20:58:57.709Z,11.80
2018-11-14T21:01:28.168Z,11.80
2018-11-14T21:03:58.522Z,11.80
2018-11-14T21:06:31.334Z,11.70
2018-11-14T21:09:01.544Z,11.60
2018-11-14T21:11:31.954Z,11.60
2018-11-14T21:14:02.321Z,11.50
2018-11-14T21:16:32.393Z,11.50
2018-11-14T21:19:02.578Z,11.50
2018-11-14T21:21:33.134Z,11.50
2018-11-14T21:24:03.309Z,11.50
2018-11-14T21:26:33.609Z,11.40
2018-11-14T21:29:03.969Z,11.50
2018-11-14T21:31:34.158Z,11.40
2018-11-14T21:34:04.384Z,11.40
2018-11-14T21:36:34.495Z,11.40
2018-11-14T21:39:05.777Z,11.50
2018-11-14T21:41:35.918Z,11.50
2018-11-14T21:44:06.844Z,11.40
2018-11-14T21:46:36.953Z,11.30
2018-11-14T21:49:12.598Z,11.30
2018-11-14T21:51:42.973Z,11.20
2018-11-14T21:54:13.423Z,11.20
2018-11-14T21:56:43.725Z,11.10
2018-11-14T21:59:14.063Z,11.00
2018-11-14T22:01:44.513Z,11.00
2018-11-14T22:04:14.833Z,11.10
2018-11-14T22:06:45.174Z,11.10
2018-11-14T22:09:15.428Z,11.20
2018-11-14T22:11:45.828Z,11.10
2018-11-14T22:14:16.195Z,11.00
2018-11-14T22:16:47.063Z,11.20
2018-11-14T22:19:17.698Z,11.30
2018-11-14T22:21:47.949Z,11.40
2018-11-14T22:24:18.353Z,11.30
2018-11-14T22:26:48.573Z,11.20
2018-11-14T22:29:18.643Z,11.20
2018-11-14T22:31:48.918Z,11.20
2018-11-14T22:34:19.038Z,11.20
2018-11-14T22:36:49.253Z,11.20
2018-11-14T22:39:19.593Z,11.40
2018-11-14T22:41:50.003Z,11.60
2018-11-14T22:44:20.688Z,11.60
2018-11-14T22:46:50.903Z,11.70
2018-11-14T22:49:21.148Z,11.70
2018-11-14T22:51:51.228Z,11.70
2018-11-14T22:54:21.548Z,11.80
2018-11-14T22:56:51.563Z,11.80
2018-11-14T22:59:21.848Z,11.80
2018-11-14T23:01:52.048Z,11.70
2018-11-14T23:04:22.081Z,11.70
2018-11-14T23:06:52.092Z,11.70
2018-11-14T23:09:22.148Z,11.80
2018-11-14T23:11:52.463Z,11.80
2018-11-14T23:14:22.598Z,11.80
2018-11-14T23:16:52.989Z,11.80
2018-11-14T23:19:23.123Z,11.80
2018-11-14T23:21:53.868Z,11.80
2018-11-14T23:24:23.938Z,11.80
2018-11-14T23:26:54.073Z,11.80
2018-11-14T23:29:24.363Z,11.90
2018-11-14T23:31:54.526Z,11.80
2018-11-14T23:34:24.733Z,11.90
2018-11-14T23:36:54.859Z,11.80
2018-11-14T23:39:25.139Z,11.80
2018-11-14T23:41:55.169Z,11.90
2018-11-14T23:44:25.288Z,11.80
2018-11-14T23:46:55.358Z,11.80
2018-11-14T23:49:25.478Z,11.80
2018-11-14T23:51:55.492Z,11.80
2018-11-14T23:54:25.748Z,11.80
2018-11-14T23:56:55.943Z,11.80
2018-11-14T23:59:26.253Z,11.80
